createdAt,value
2018-09-29T00:02:16.635Z,83.55
2018-09-29T00:04:46.597Z,83.94
2018-09-29T00:07:16.998Z,83.45
2018-09-29T00:09:50.156Z,83.24
2018-09-29T00:12:19.763Z,82.99
2018-09-29T00:14:51.692Z,83.35
2018-09-29T00:17:21.994Z,83.58
2018-09-29T00:19:53.219Z,83.32
2018-09-29T00:22:25.194Z,83.26
2018-09-29T00:24:56.650Z,83.39
2018-09-29T00:27:26.368Z,83.47
2018-09-29T00:29:56.813Z,83.80
2018-09-29T00:32:26.912Z,84.01
2018-09-29T00:34:57.005Z,84.05
2018-09-29T00:37:27.973Z,84.41
2018-09-29T00:39:57.697Z,84.47
2018-09-29T00:42:28.400Z,84.59
2018-09-29T00:44:58.569Z,84.84
2018-09-29T00:47:29.227Z,84.71
2018-09-29T00:49:59.652Z,84.43
2018-09-29T00:52:29.451Z,84.56
2018-09-29T00:54:59.682Z,84.94
2018-09-29T00:57:29.462Z,84.76
2018-09-29T01:00:00.870Z,84.80
2018-09-29T01:02:31.195Z,84.46
2018-09-29T01:05:01.592Z,84.72
2018-09-29T01:07:31.340Z,84.25
2018-09-29T01:10:01.764Z,84.11
2018-09-29T01:12:32.815Z,84.23
2018-09-29T01:15:03.783Z,84.60
2018-09-29T01:17:34.707Z,85.08
2018-09-29T01:20:04.909Z,85.12
2018-09-29T01:22:34.949Z,85.13
2018-09-29T01:25:04.837Z,85.32
2018-09-29T01:27:34.858Z,85.15
2018-09-29T01:30:05.249Z,85.21
2018-09-29T01:32:35.539Z,85.52
2018-09-29T01:35:07.102Z,85.62
2018-09-29T01:37:37.573Z,85.49
2018-09-29T01:40:09.487Z,85.66
2018-09-29T01:42:40.521Z,85.94
2018-09-29T01:45:10.478Z,85.69
2018-09-29T01:47:40.218Z,85.33
2018-09-29T01:50:10.722Z,85.58
2018-09-29T01:52:41.054Z,85.89
2018-09-29T01:55:12.376Z,85.74
2018-09-29T01:57:49.230Z,86.37
2018-09-29T02:00:19.819Z,85.94
2018-09-29T02:02:49.826Z,86.52
2018-09-29T02:05:21.132Z,85.93
2018-09-29T02:07:52.139Z,85.93
2018-09-29T02:10:22.116Z,85.97
2018-09-29T02:12:54.255Z,86.19
2018-09-29T02:15:24.029Z,85.74
2018-09-29T02:17:54.329Z,85.77
2018-09-29T02:20:24.791Z,85.81
2018-09-29T02:22:54.663Z,86.09
2018-09-29T02:25:26.145Z,85.87
2018-09-29T02:27:56.627Z,85.88
2018-09-29T02:30:26.790Z,86.09
2018-09-29T02:32:57.221Z,86.13
2018-09-29T02:35:27.108Z,85.83
2018-09-29T02:37:57.083Z,85.40
2018-09-29T02:40:27.017Z,85.83
2018-09-29T02:42:56.661Z,85.44
2018-09-29T02:45:26.905Z,85.78
2018-09-29T02:47:56.504Z,86.01
2018-09-29T02:50:26.475Z,86.15
2018-09-29T02:52:58.532Z,85.84
2018-09-29T02:55:28.474Z,85.82
2018-09-29T02:57:58.302Z,86.25
2018-09-29T03:00:28.765Z,86.39
2018-09-29T03:03:00.284Z,86.12
2018-09-29T03:05:31.240Z,86.76
2018-09-29T03:08:01.205Z,86.85
2018-09-29T03:10:32.692Z,86.58
2018-09-29T03:13:02.689Z,86.93
2018-09-29T03:15:33.396Z,86.90
2018-09-29T03:18:03.522Z,86.77
2018-09-29T03:20:34.063Z,87.01
2018-09-29T03:23:04.131Z,86.79
2018-09-29T03:25:35.214Z,86.85
2018-09-29T03:28:05.013Z,86.50
2018-09-29T03:30:34.849Z,86.79
2018-09-29T03:33:05.009Z,87.14
2018-09-29T03:35:35.079Z,86.88
2018-09-29T03:38:06.008Z,86.83
2018-09-29T03:40:36.093Z,87.09
2018-09-29T03:43:06.613Z,87.03
2018-09-29T03:45:37.137Z,86.97
2018-09-29T03:48:09.059Z,87.21
2018-09-29T03:50:38.919Z,87.38
2018-09-29T03:53:09.258Z,87.57
2018-09-29T03:55:39.226Z,87.66
2018-09-29T03:58:10.302Z,87.68
2018-09-29T04:00:40.781Z,87.44
2018-09-29T04:03:11.583Z,87.52
2018-09-29T04:05:41.800Z,87.42
2018-09-29T04:08:11.814Z,87.64
2018-09-29T04:10:41.484Z,87.52
2018-09-29T04:13:11.576Z,87.60
2018-09-29T04:15:42.117Z,87.37
2018-09-29T04:18:11.841Z,87.39
2018-09-29T04:20:41.968Z,87.36
2018-09-29T04:23:13.218Z,87.37
2018-09-29T04:25:42.923Z,87.09
2018-09-29T04:28:13.957Z,85.98
2018-09-29T04:30:44.106Z,83.06
2018-09-29T04:33:15.370Z,83.54
2018-09-29T04:35:45.119Z,82.74
2018-09-29T04:38:15.430Z,82.25
2018-09-29T04:40:45.871Z,82.55
2018-09-29T04:43:16.046Z,82.64
2018-09-29T04:45:45.886Z,83.30
2018-09-29T04:48:15.848Z,83.31
2018-09-29T04:50:45.655Z,82.73
2018-09-29T04:53:15.494Z,82.51
2018-09-29T04:55:45.400Z,81.17
2018-09-29T04:58:15.239Z,76.00
2018-09-29T05:00:45.106Z,75.37
2018-09-29T05:03:14.989Z,75.02
2018-09-29T05:05:44.923Z,74.89
2018-09-29T05:08:14.703Z,74.60
2018-09-29T05:10:44.573Z,75.11
2018-09-29T05:13:14.389Z,75.30
2018-09-29T05:15:44.285Z,76.24
2018-09-29T05:18:14.259Z,77.02
2018-09-29T05:20:44.102Z,76.55
2018-09-29T05:23:14.272Z,75.01
2018-09-29T05:25:44.173Z,74.02
2018-09-29T05:28:14.099Z,73.47
2018-09-29T05:30:44.004Z,72.30
2018-09-29T05:33:14.164Z,72.20
2018-09-29T05:35:44.011Z,72.11
2018-09-29T05:38:13.953Z,71.76
2018-09-29T05:40:43.829Z,71.38
2018-09-29T05:43:13.649Z,69.25
2018-09-29T05:45:43.524Z,68.80
2018-09-29T05:48:13.432Z,68.59
2018-09-29T05:50:43.317Z,68.98
2018-09-29T05:53:13.318Z,68.66
2018-09-29T05:55:43.245Z,67.97
2018-09-29T05:58:13.050Z,68.56
2018-09-29T06:00:43.085Z,70.26
2018-09-29T06:03:12.980Z,71.17
2018-09-29T06:05:42.894Z,71.48
2018-09-29T06:14:56.378Z,69.55
2018-09-29T06:17:26.269Z,68.74
2018-09-29T06:19:56.262Z,67.59
2018-09-29T06:22:26.120Z,66.61
2018-09-29T06:24:56.326Z,68.37
2018-09-29T06:27:26.240Z,68.99
2018-09-29T06:29:56.148Z,67.63
2018-09-29T06:32:25.926Z,66.85
2018-09-29T06:34:55.743Z,66.71
2018-09-29T06:37:25.653Z,65.71
2018-09-29T06:39:55.524Z,64.29
2018-09-29T06:42:25.363Z,63.13
2018-09-29T06:44:55.243Z,61.37
2018-09-29T06:47:25.050Z,60.62
2018-09-29T06:49:54.831Z,60.15
2018-09-29T06:52:24.625Z,58.39
2018-09-29T06:54:54.562Z,57.79
2018-09-29T06:57:24.320Z,57.18
2018-09-29T06:59:54.195Z,57.10
2018-09-29T07:02:23.991Z,57.46
2018-09-29T07:04:53.811Z,56.88
2018-09-29T07:07:23.886Z,55.99
2018-09-29T07:09:53.794Z,55.37
2018-09-29T07:12:23.719Z,55.51
2018-09-29T07:14:53.670Z,55.08
2018-09-29T07:17:23.536Z,54.54
2018-09-29T07:19:53.357Z,56.02
2018-09-29T07:22:23.189Z,59.68
2018-09-29T07:24:53.036Z,58.68
2018-09-29T07:27:22.847Z,56.33
2018-09-29T07:29:52.678Z,57.16
2018-09-29T07:32:22.537Z,56.80
2018-09-29T07:34:52.454Z,56.62
2018-09-29T07:37:22.310Z,57.11
2018-09-29T07:39:52.194Z,55.87
2018-09-29T07:42:22.176Z,55.45
2018-09-29T07:44:52.041Z,54.05
2018-09-29T07:47:21.987Z,53.38
2018-09-29T07:49:58.131Z,54.08
2018-09-29T07:52:27.979Z,54.20
2018-09-29T07:54:57.890Z,53.89
2018-09-29T07:57:27.797Z,52.79
2018-09-29T07:59:57.743Z,52.17
2018-09-29T08:02:27.635Z,53.03
2018-09-29T08:04:57.585Z,52.73
2018-09-29T08:07:27.313Z,53.04
2018-09-29T08:09:57.236Z,52.60
2018-09-29T08:12:27.101Z,52.44
2018-09-29T08:14:57.015Z,52.03
2018-09-29T08:17:26.925Z,52.16
2018-09-29T08:19:57.016Z,51.58
2018-09-29T08:22:26.816Z,52.13
2018-09-29T08:24:56.905Z,51.88
2018-09-29T08:27:27.174Z,51.72
2018-09-29T08:29:58.141Z,51.53
2018-09-29T08:32:29.113Z,52.60
2018-09-29T08:34:59.991Z,53.70
2018-09-29T08:37:30.102Z,53.78
2018-09-29T08:40:01.348Z,54.03
2018-09-29T08:42:31.921Z,53.20
2018-09-29T08:45:01.957Z,53.55
2018-09-29T08:47:32.989Z,51.28
2018-09-29T08:50:03.693Z,51.67
2018-09-29T08:52:34.737Z,51.31
2018-09-29T08:55:04.788Z,51.57
2018-09-29T08:57:36.805Z,51.54
2018-09-29T09:00:07.002Z,51.25
2018-09-29T09:02:37.493Z,50.90
2018-09-29T09:05:08.713Z,50.51
2018-09-29T09:07:39.335Z,50.53
2018-09-29T09:10:10.282Z,50.31
2018-09-29T09:12:41.957Z,49.87
2018-09-29T09:15:11.609Z,49.36
2018-09-29T09:17:41.930Z,48.96
2018-09-29T09:20:13.004Z,49.30
2018-09-29T09:22:43.790Z,49.15
2018-09-29T09:25:14.769Z,50.11
2018-09-29T09:27:45.785Z,47.57
2018-09-29T09:30:16.625Z,46.56
2018-09-29T09:32:47.324Z,46.89
2018-09-29T09:35:19.245Z,47.76
2018-09-29T09:37:50.039Z,46.91
2018-09-29T09:40:21.498Z,46.52
2018-09-29T09:42:52.805Z,46.33
2018-09-29T09:45:22.714Z,45.97
2018-09-29T09:47:52.637Z,47.87
2018-09-29T09:50:22.537Z,47.39
2018-09-29T09:52:52.540Z,47.24
2018-09-29T09:55:22.439Z,46.60
2018-09-29T09:57:52.345Z,46.96
2018-09-29T10:00:26.321Z,47.53
2018-09-29T10:03:01.453Z,47.11
2018-09-29T10:05:31.301Z,47.93
2018-09-29T10:08:01.236Z,46.37
2018-09-29T10:10:31.115Z,46.81
2018-09-29T10:13:01.023Z,46.54
2018-09-29T10:15:31.003Z,46.81
2018-09-29T10:18:00.861Z,46.85
2018-09-29T10:20:30.813Z,47.06
2018-09-29T10:23:00.701Z,47.58
2018-09-29T10:25:30.637Z,47.19
2018-09-29T10:28:00.475Z,46.50
2018-09-29T10:30:30.902Z,47.40
2018-09-29T10:33:00.731Z,47.57
2018-09-29T10:35:30.881Z,47.86
2018-09-29T10:38:00.818Z,48.67
2018-09-29T10:40:30.740Z,48.34
2018-09-29T10:43:00.668Z,49.08
2018-09-29T10:45:30.658Z,48.76
2018-09-29T10:48:00.529Z,48.50
2018-09-29T10:50:30.497Z,47.21
2018-09-29T10:53:00.464Z,47.36
2018-09-29T10:55:30.290Z,49.18
2018-09-29T10:58:00.244Z,48.41
2018-09-29T11:00:30.185Z,48.31
2018-09-29T11:03:00.071Z,47.34
2018-09-29T11:05:30.019Z,47.65
2018-09-29T11:07:59.974Z,48.32
2018-09-29T11:10:29.874Z,47.88
2018-09-29T11:12:59.777Z,47.44
2018-09-29T11:15:29.685Z,47.16
2018-09-29T11:17:59.602Z,46.25
2018-09-29T11:20:29.437Z,46.00
2018-09-29T11:22:59.454Z,46.15
2018-09-29T11:25:29.346Z,45.45
2018-09-29T11:27:59.270Z,45.73
2018-09-29T11:30:29.225Z,45.25
2018-09-29T11:32:59.010Z,45.07
2018-09-29T11:35:28.889Z,44.85
2018-09-29T11:37:58.751Z,46.50
2018-09-29T11:40:28.730Z,46.51
2018-09-29T11:42:58.843Z,47.32
2018-09-29T11:45:28.758Z,46.43
2018-09-29T11:47:58.710Z,45.78
2018-09-29T11:50:28.637Z,46.50
2018-09-29T11:52:58.751Z,46.03
2018-09-29T11:55:28.693Z,45.03
2018-09-29T11:57:58.632Z,45.11
2018-09-29T12:00:28.654Z,45.17
2018-09-29T12:02:58.574Z,45.18
2018-09-29T12:05:28.493Z,43.54
2018-09-29T12:07:58.388Z,43.87
2018-09-29T12:10:28.410Z,43.10
2018-09-29T12:12:58.302Z,43.41
2018-09-29T12:15:28.686Z,44.04
2018-09-29T12:17:58.598Z,45.19
2018-09-29T12:20:28.508Z,45.72
2018-09-29T12:22:58.325Z,46.21
2018-09-29T12:25:28.353Z,45.26
2018-09-29T12:27:58.195Z,45.10
2018-09-29T12:30:28.128Z,45.02
2018-09-29T12:32:57.945Z,46.22
2018-09-29T12:35:27.709Z,46.77
2018-09-29T12:37:57.677Z,46.54
2018-09-29T12:40:27.562Z,46.19
2018-09-29T12:42:57.521Z,45.99
2018-09-29T12:45:27.292Z,46.29
2018-09-29T12:47:57.143Z,45.63
2018-09-29T12:50:27.049Z,45.49
2018-09-29T12:52:56.859Z,45.71
2018-09-29T12:55:26.757Z,45.29
2018-09-29T12:57:56.695Z,45.16
2018-09-29T13:00:26.614Z,44.82
2018-09-29T13:02:56.508Z,44.98
2018-09-29T13:05:26.462Z,44.60
2018-09-29T13:07:56.367Z,44.05
2018-09-29T13:10:26.345Z,44.73
2018-09-29T13:12:56.227Z,45.55
2018-09-29T13:15:26.113Z,45.37
2018-09-29T13:17:56.073Z,44.56
2018-09-29T13:20:26.015Z,44.85
2018-09-29T13:22:55.931Z,45.14
2018-09-29T13:25:26.482Z,45.43
2018-09-29T13:27:56.409Z,45.31
2018-09-29T13:30:26.351Z,44.86
2018-09-29T13:32:56.213Z,45.00
2018-09-29T13:35:26.077Z,45.55
2018-09-29T13:37:56.006Z,45.71
2018-09-29T13:40:26.027Z,44.51
2018-09-29T13:42:55.809Z,44.03
2018-09-29T13:45:25.654Z,43.17
2018-09-29T13:47:55.555Z,43.71
2018-09-29T13:50:25.493Z,43.47
2018-09-29T13:52:55.595Z,43.81
2018-09-29T13:55:25.422Z,43.87
2018-09-29T13:57:55.345Z,44.41
2018-09-29T14:00:25.313Z,43.56
2018-09-29T14:02:55.136Z,43.56
2018-09-29T14:05:24.906Z,43.74
2018-09-29T14:07:54.821Z,43.75
2018-09-29T14:10:24.702Z,43.83
2018-09-29T14:12:54.550Z,43.29
2018-09-29T14:15:24.419Z,43.75
2018-09-29T14:17:54.304Z,43.03
2018-09-29T14:20:24.270Z,42.10
2018-09-29T14:22:54.135Z,41.76
2018-09-29T14:25:24.160Z,41.60
2018-09-29T14:27:54.044Z,41.13
2018-09-29T14:30:23.915Z,41.06
2018-09-29T14:32:53.772Z,40.48
2018-09-29T14:35:23.622Z,39.00
2018-09-29T14:37:53.598Z,39.32
2018-09-29T14:40:23.529Z,39.84
2018-09-29T14:42:54.339Z,40.33
2018-09-29T14:45:24.183Z,40.93
2018-09-29T14:47:54.175Z,39.85
2018-09-29T14:50:24.071Z,40.17
2018-09-29T14:52:53.829Z,40.71
2018-09-29T14:55:23.693Z,39.21
2018-09-29T14:57:53.786Z,38.89
2018-09-29T15:00:23.621Z,39.76
2018-09-29T15:02:53.566Z,39.83
2018-09-29T15:05:23.507Z,39.17
2018-09-29T15:07:53.445Z,39.05
2018-09-29T15:10:23.243Z,39.33
2018-09-29T15:12:53.113Z,38.41
2018-09-29T15:15:22.974Z,38.49
2018-09-29T15:17:52.876Z,37.98
2018-09-29T15:20:22.836Z,38.80
2018-09-29T15:22:52.758Z,38.97
2018-09-29T15:25:22.621Z,37.34
2018-09-29T15:27:52.557Z,37.75
2018-09-29T15:30:22.490Z,38.04
2018-09-29T15:32:52.372Z,37.68
2018-09-29T15:35:22.332Z,38.12
2018-09-29T15:37:52.338Z,38.76
2018-09-29T15:40:22.288Z,38.69
2018-09-29T15:42:52.367Z,38.54
2018-09-29T15:45:22.133Z,38.25
2018-09-29T15:47:51.941Z,37.67
2018-09-29T15:50:21.901Z,37.01
2018-09-29T15:52:51.777Z,37.58
2018-09-29T15:55:21.658Z,37.64
2018-09-29T15:57:51.559Z,37.37
2018-09-29T16:00:21.452Z,37.39
2018-09-29T16:02:51.364Z,37.79
2018-09-29T16:05:21.305Z,38.11
2018-09-29T16:07:51.178Z,38.68
2018-09-29T16:10:21.118Z,38.93
2018-09-29T16:12:51.022Z,38.81
2018-09-29T16:15:20.899Z,38.42
2018-09-29T16:17:50.849Z,38.86
2018-09-29T16:20:20.874Z,37.59
2018-09-29T16:22:50.798Z,41.70
2018-09-29T16:25:20.654Z,37.10
2018-09-29T16:27:50.515Z,36.52
2018-09-29T16:30:20.383Z,36.88
2018-09-29T16:32:50.225Z,37.90
2018-09-29T16:35:20.135Z,37.91
2018-09-29T16:37:50.051Z,38.27
2018-09-29T16:40:20.026Z,39.45
2018-09-29T16:42:49.918Z,39.03
2018-09-29T16:45:19.825Z,38.22
2018-09-29T16:47:49.612Z,38.08
2018-09-29T16:50:19.505Z,38.30
2018-09-29T16:52:49.435Z,38.73
2018-09-29T16:55:19.404Z,40.16
2018-09-29T16:57:49.345Z,38.70
2018-09-29T17:00:19.301Z,38.79
2018-09-29T17:02:49.221Z,39.05
2018-09-29T17:05:20.120Z,39.50
2018-09-29T17:07:50.094Z,40.09
2018-09-29T17:10:20.129Z,40.47
2018-09-29T17:12:50.077Z,40.59
2018-09-29T17:15:20.995Z,41.01
2018-09-29T17:17:50.895Z,41.49
2018-09-29T17:20:20.836Z,42.12
2018-09-29T17:22:50.760Z,41.54
2018-09-29T17:25:20.605Z,41.21
2018-09-29T17:27:50.513Z,41.48
2018-09-29T17:30:20.450Z,41.60
2018-09-29T17:32:50.327Z,41.29
2018-09-29T17:35:20.282Z,41.69
2018-09-29T17:37:50.382Z,42.15
2018-09-29T17:40:22.154Z,40.59
2018-09-29T17:42:52.147Z,40.92
2018-09-29T17:45:22.028Z,43.52
2018-09-29T17:47:51.933Z,44.01
2018-09-29T17:50:21.808Z,44.57
2018-09-29T17:52:51.944Z,45.29
2018-09-29T17:55:21.770Z,47.27
2018-09-29T17:57:51.533Z,47.24
2018-09-29T18:00:21.439Z,49.23
2018-09-29T18:02:51.420Z,50.50
2018-09-29T18:05:21.275Z,50.05
2018-09-29T18:07:51.289Z,50.65
2018-09-29T18:10:21.110Z,52.18
2018-09-29T18:12:50.901Z,53.35
2018-09-29T18:15:20.770Z,54.41
2018-09-29T18:17:50.675Z,54.49
2018-09-29T18:20:20.550Z,53.60
2018-09-29T18:22:50.559Z,53.37
2018-09-29T18:25:20.377Z,52.88
2018-09-29T18:27:50.369Z,52.74
2018-09-29T18:30:20.276Z,54.50
2018-09-29T18:32:50.622Z,54.36
2018-09-29T18:35:20.565Z,54.48
2018-09-29T18:37:50.495Z,56.13
2018-09-29T18:40:20.390Z,57.52
2018-09-29T18:42:50.177Z,57.86
2018-09-29T18:45:20.122Z,57.91
2018-09-29T18:47:49.943Z,57.41
2018-09-29T18:50:19.845Z,56.52
2018-09-29T18:52:49.855Z,57.26
2018-09-29T18:55:19.784Z,57.74
2018-09-29T18:57:49.685Z,58.81
2018-09-29T19:00:19.598Z,59.54
2018-09-29T19:02:49.550Z,58.87
2018-09-29T19:05:19.360Z,59.02
2018-09-29T19:07:49.278Z,58.22
2018-09-29T19:10:19.208Z,56.10
2018-09-29T19:12:49.290Z,57.25
2018-09-29T19:15:19.397Z,56.55
2018-09-29T19:17:49.321Z,55.82
2018-09-29T19:20:19.219Z,57.49
2018-09-29T19:22:50.079Z,58.18
2018-09-29T19:25:19.917Z,58.43
2018-09-29T19:27:49.746Z,58.06
2018-09-29T19:30:19.674Z,59.12
2018-09-29T19:32:49.573Z,58.55
2018-09-29T19:35:19.528Z,61.92
2018-09-29T19:37:49.411Z,59.54
2018-09-29T19:40:19.390Z,58.49
2018-09-29T19:42:49.330Z,60.22
2018-09-29T19:45:19.305Z,60.88
2018-09-29T19:47:49.641Z,60.83
2018-09-29T19:50:19.643Z,61.00
2018-09-29T19:52:49.615Z,61.52
2018-09-29T19:55:19.399Z,61.99
2018-09-29T19:57:49.217Z,62.18
2018-09-29T20:00:19.071Z,61.77
2018-09-29T20:02:48.859Z,62.35
2018-09-29T20:05:18.745Z,61.02
2018-09-29T20:07:48.687Z,58.63
2018-09-29T20:10:18.663Z,60.60
2018-09-29T20:12:48.595Z,61.85
2018-09-29T20:15:18.543Z,62.10
2018-09-29T20:17:48.411Z,61.98
2018-09-29T20:20:18.381Z,62.55
2018-09-29T20:22:48.332Z,63.63
2018-09-29T20:25:18.283Z,63.19
2018-09-29T20:27:48.224Z,62.43
2018-09-29T20:30:18.836Z,62.89
2018-09-29T20:32:48.778Z,63.46
2018-09-29T20:35:18.790Z,64.63
2018-09-29T20:37:50.877Z,64.84
2018-09-29T20:40:21.399Z,64.39
2018-09-29T20:42:51.488Z,64.83
2018-09-29T20:45:21.405Z,64.59
2018-09-29T20:47:51.276Z,65.32
2018-09-29T20:50:21.178Z,65.36
2018-09-29T20:52:51.009Z,66.02
2018-09-29T20:55:20.961Z,66.12
2018-09-29T20:57:51.853Z,66.56
2018-09-29T21:00:22.860Z,66.70
2018-09-29T21:02:54.061Z,66.81
2018-09-29T21:05:24.545Z,67.35
2018-09-29T21:07:55.009Z,67.73
2018-09-29T21:10:25.117Z,68.04
2018-09-29T21:12:57.027Z,67.69
2018-09-29T21:15:27.634Z,67.94
2018-09-29T21:17:57.698Z,67.24
2018-09-29T21:20:27.614Z,67.58
2018-09-29T21:22:57.673Z,68.12
2018-09-29T21:25:30.085Z,68.76
2018-09-29T21:28:00.653Z,68.55
2018-09-29T21:30:31.475Z,68.47
2018-09-29T21:33:02.248Z,68.90
2018-09-29T21:35:33.185Z,69.04
2018-09-29T21:38:03.294Z,69.16
2018-09-29T21:40:34.065Z,69.50
2018-09-29T21:43:04.655Z,69.80
2018-09-29T21:45:35.089Z,70.06
2018-09-29T21:48:05.689Z,70.40
2018-09-29T21:50:36.066Z,71.17
2018-09-29T21:53:06.279Z,70.96
2018-09-29T21:55:35.925Z,71.34
2018-09-29T21:58:05.736Z,71.95
2018-09-29T22:00:40.811Z,71.88
2018-09-29T22:03:10.805Z,71.65
2018-09-29T22:05:41.298Z,71.49
2018-09-29T22:08:11.265Z,71.12
2018-09-29T22:10:41.439Z,71.31
2018-09-29T22:13:12.158Z,71.33
2018-09-29T22:15:42.097Z,71.58
2018-09-29T22:18:11.785Z,71.81
2018-09-29T22:20:41.616Z,72.01
2018-09-29T22:23:11.545Z,72.41
2018-09-29T22:25:41.317Z,72.88
2018-09-29T22:28:11.282Z,72.80
2018-09-29T22:30:41.654Z,73.26
2018-09-29T22:33:11.797Z,73.35
2018-09-29T22:35:42.448Z,73.23
2018-09-29T22:38:12.708Z,72.86
2018-09-29T22:40:42.763Z,73.01
2018-09-29T22:43:13.408Z,72.98
2018-09-29T22:45:43.253Z,73.51
2018-09-29T22:48:13.105Z,73.42
2018-09-29T22:50:42.984Z,73.55
2018-09-29T22:53:13.170Z,73.45
2018-09-29T22:55:43.866Z,73.67
2018-09-29T22:58:13.900Z,74.25
2018-09-29T23:00:44.058Z,74.21
2018-09-29T23:03:14.099Z,73.86
2018-09-29T23:05:43.912Z,73.83
2018-09-29T23:08:13.683Z,73.94
2018-09-29T23:10:43.631Z,74.33
2018-09-29T23:13:13.690Z,74.34
2018-09-29T23:15:44.060Z,74.37
2018-09-29T23:18:14.802Z,74.23
2018-09-29T23:20:45.185Z,74.56
2018-09-29T23:23:15.718Z,74.72
2018-09-29T23:25:45.520Z,75.08
2018-09-29T23:28:15.482Z,74.95
2018-09-29T23:30:45.395Z,74.91
2018-09-29T23:33:15.276Z,75.06
2018-09-29T23:35:45.132Z,75.14
2018-09-29T23:38:15.088Z,75.42
2018-09-29T23:40:45.075Z,75.49
2018-09-29T23:43:15.001Z,75.35
2018-09-29T23:45:44.865Z,75.47
2018-09-29T23:48:14.698Z,75.36
2018-09-29T23:50:44.664Z,75.15
2018-09-29T23:53:14.415Z,75.54
2018-09-29T23:55:44.267Z,75.37
2018-09-29T23:58:14.227Z,75.93
